sensor_id;sensor_type;location;lat;lon;timestamp;pressure;altitude;pressure_sealevel;temperature;humidity
76694;BME280;65625;52.136;5.424;2022-12-29T00:01:38;100021.22;;;10.02;95.56
76694;BME280;65625;52.136;5.424;2022-12-29T00:04:05;100023.53;;;10.06;95.29
76694;BME280;65625;52.136;5.424;2022-12-29T00:06:40;100015.56;;;10.05;95.37
76694;BME280;65625;52.136;5.424;2022-12-29T00:09:07;100007.97;;;10.10;94.75
76694;BME280;65625;52.136;5.424;2022-12-29T00:11:34;100008.28;;;10.16;94.12
76694;BME280;65625;52.136;5.424;2022-12-29T00:14:00;100000.34;;;10.15;94.70
76694;BME280;65625;52.136;5.424;2022-12-29T00:16:51;100004.63;;;10.17;94.20
76694;BME280;65625;52.136;5.424;2022-12-29T00:19:18;100004.34;;;10.20;93.70
76694;BME280;65625;52.136;5.424;2022-12-29T00:22:03;99992.19;;;10.26;93.71
76694;BME280;65625;52.136;5.424;2022-12-29T00:24:49;99992.69;;;10.20;94.21
76694;BME280;65625;52.136;5.424;2022-12-29T00:27:28;99980.81;;;10.23;93.92
76694;BME280;65625;52.136;5.424;2022-12-29T00:30:21;99991.59;;;10.23;93.34
76694;BME280;65625;52.136;5.424;2022-12-29T00:33:15;99979.53;;;10.27;93.46
76694;BME280;65625;52.136;5.424;2022-12-29T00:38:44;99975.72;;;10.29;93.12
76694;BME280;65625;52.136;5.424;2022-12-29T00:41:30;99969.47;;;10.29;92.85
76694;BME280;65625;52.136;5.424;2022-12-29T00:44:15;99967.50;;;10.31;93.10
76694;BME280;65625;52.136;5.424;2022-12-29T00:46:43;99971.34;;;10.28;93.00
76694;BME280;65625;52.136;5.424;2022-12-29T00:49:11;99956.69;;;10.31;92.76
76694;BME280;65625;52.136;5.424;2022-12-29T00:52:10;99948.06;;;10.37;92.48
76694;BME280;65625;52.136;5.424;2022-12-29T00:54:39;99939.81;;;10.38;92.28
76694;BME280;65625;52.136;5.424;2022-12-29T00:57:08;99940.69;;;10.39;92.22
76694;BME280;65625;52.136;5.424;2022-12-29T00:59:39;99941.97;;;10.35;92.30
76694;BME280;65625;52.136;5.424;2022-12-29T01:02:07;99940.69;;;10.39;92.47
76694;BME280;65625;52.136;5.424;2022-12-29T01:04:34;99932.59;;;10.39;91.70
76694;BME280;65625;52.136;5.424;2022-12-29T01:07:00;99922.81;;;10.38;92.47
76694;BME280;65625;52.136;5.424;2022-12-29T01:09:27;99922.50;;;10.31;92.58
76694;BME280;65625;52.136;5.424;2022-12-29T01:12:12;99923.75;;;10.27;92.66
76694;BME280;65625;52.136;5.424;2022-12-29T01:14:40;99922.34;;;10.23;92.75
76694;BME280;65625;52.136;5.424;2022-12-29T01:17:06;99920.47;;;10.23;92.91
76694;BME280;65625;52.136;5.424;2022-12-29T01:19:33;99917.19;;;10.20;93.30
76694;BME280;65625;52.136;5.424;2022-12-29T01:22:00;99913.34;;;10.13;93.97
76694;BME280;65625;52.136;5.424;2022-12-29T01:24:27;99903.06;;;10.07;94.84
76694;BME280;65625;52.136;5.424;2022-12-29T01:26:53;99907.41;;;9.98;95.34
76694;BME280;65625;52.136;5.424;2022-12-29T01:29:21;99901.72;;;9.92;96.07
76694;BME280;65625;52.136;5.424;2022-12-29T01:31:48;99904.94;;;9.86;96.17
76694;BME280;65625;52.136;5.424;2022-12-29T01:34:16;99898.84;;;9.84;96.80
76694;BME280;65625;52.136;5.424;2022-12-29T01:36:43;99898.50;;;9.77;96.79
76694;BME280;65625;52.136;5.424;2022-12-29T01:39:11;99903.44;;;9.72;97.24
76694;BME280;65625;52.136;5.424;2022-12-29T01:41:37;99920.59;;;9.71;97.96
76694;BME280;65625;52.136;5.424;2022-12-29T01:47:08;99895.78;;;9.68;98.24
76694;BME280;65625;52.136;5.424;2022-12-29T01:49:35;99904.97;;;9.65;98.32
76694;BME280;65625;52.136;5.424;2022-12-29T01:52:06;99909.34;;;9.66;99.03
76694;BME280;65625;52.136;5.424;2022-12-29T01:54:41;99915.00;;;9.63;98.88
76694;BME280;65625;52.136;5.424;2022-12-29T01:57:13;99908.94;;;9.61;98.62
76694;BME280;65625;52.136;5.424;2022-12-29T02:00:02;99923.22;;;9.62;98.74
76694;BME280;65625;52.136;5.424;2022-12-29T02:02:38;99915.75;;;9.65;98.69
76694;BME280;65625;52.136;5.424;2022-12-29T02:05:11;99921.13;;;9.65;98.62
76694;BME280;65625;52.136;5.424;2022-12-29T02:07:40;99919.44;;;9.64;98.92
76694;BME280;65625;52.136;5.424;2022-12-29T02:10:09;99919.44;;;9.64;98.97
76694;BME280;65625;52.136;5.424;2022-12-29T02:12:36;99919.03;;;9.69;98.87
76694;BME280;65625;52.136;5.424;2022-12-29T02:15:03;99915.34;;;9.70;98.88
76694;BME280;65625;52.136;5.424;2022-12-29T02:25:37;99922.44;;;9.71;98.66
76694;BME280;65625;52.136;5.424;2022-12-29T02:34:13;99930.81;;;9.68;98.87
76694;BME280;65625;52.136;5.424;2022-12-29T02:37:00;99929.94;;;9.67;98.38
76694;BME280;65625;52.136;5.424;2022-12-29T02:48:18;99913.72;;;9.58;97.99
76694;BME280;65625;52.136;5.424;2022-12-29T02:50:55;99909.28;;;9.57;97.69
76694;BME280;65625;52.136;5.424;2022-12-29T02:53:25;99916.56;;;9.56;97.82
76694;BME280;65625;52.136;5.424;2022-12-29T02:56:11;99897.41;;;9.59;96.98
76694;BME280;65625;52.136;5.424;2022-12-29T02:58:37;99901.69;;;9.62;96.59
76694;BME280;65625;52.136;5.424;2022-12-29T03:06:33;99913.13;;;9.54;96.90
76694;BME280;65625;52.136;5.424;2022-12-29T03:09:14;99912.53;;;9.51;96.88
76694;BME280;65625;52.136;5.424;2022-12-29T03:11:58;99930.84;;;9.57;96.96
76694;BME280;65625;52.136;5.424;2022-12-29T03:20:26;99908.50;;;9.45;96.71
76694;BME280;65625;52.136;5.424;2022-12-29T03:23:00;99916.00;;;9.42;97.01
76694;BME280;65625;52.136;5.424;2022-12-29T03:25:33;99917.47;;;9.46;96.87
76694;BME280;65625;52.136;5.424;2022-12-29T03:28:08;99903.44;;;9.52;96.87
76694;BME280;65625;52.136;5.424;2022-12-29T03:30:42;99915.94;;;9.53;96.92
76694;BME280;65625;52.136;5.424;2022-12-29T03:33:14;99902.63;;;9.51;96.61
76694;BME280;65625;52.136;5.424;2022-12-29T03:35:44;99887.38;;;9.41;96.53
76694;BME280;65625;52.136;5.424;2022-12-29T03:40:51;99886.00;;;9.26;97.01
76694;BME280;65625;52.136;5.424;2022-12-29T03:43:19;99897.16;;;9.21;96.75
76694;BME280;65625;52.136;5.424;2022-12-29T03:45:47;99900.09;;;9.18;96.81
76694;BME280;65625;52.136;5.424;2022-12-29T03:48:13;99898.59;;;9.25;96.94
76694;BME280;65625;52.136;5.424;2022-12-29T03:50:40;99898.72;;;9.24;97.22
76694;BME280;65625;52.136;5.424;2022-12-29T03:53:08;99881.97;;;9.20;97.02
76694;BME280;65625;52.136;5.424;2022-12-29T03:55:34;99895.56;;;9.19;97.00
76694;BME280;65625;52.136;5.424;2022-12-29T03:58:01;99898.06;;;9.11;97.06
76694;BME280;65625;52.136;5.424;2022-12-29T04:00:43;99896.09;;;9.13;96.91
76694;BME280;65625;52.136;5.424;2022-12-29T04:03:09;99890.84;;;9.11;96.90
76694;BME280;65625;52.136;5.424;2022-12-29T04:05:36;99894.91;;;9.06;97.06
76694;BME280;65625;52.136;5.424;2022-12-29T04:08:03;99897.84;;;9.03;97.29
76694;BME280;65625;52.136;5.424;2022-12-29T04:10:30;99882.28;;;9.06;97.06
76694;BME280;65625;52.136;5.424;2022-12-29T04:12:59;99892.06;;;9.07;96.92
76694;BME280;65625;52.136;5.424;2022-12-29T04:15:25;99891.19;;;9.07;96.84
76694;BME280;65625;52.136;5.424;2022-12-29T04:17:52;99897.31;;;9.09;96.83
76694;BME280;65625;52.136;5.424;2022-12-29T04:20:19;99902.69;;;9.09;96.43
76694;BME280;65625;52.136;5.424;2022-12-29T04:23:06;99915.91;;;9.12;96.17
76694;BME280;65625;52.136;5.424;2022-12-29T04:25:34;99921.28;;;9.12;96.27
76694;BME280;65625;52.136;5.424;2022-12-29T04:28:01;99919.59;;;9.11;96.31
76694;BME280;65625;52.136;5.424;2022-12-29T04:30:41;99919.19;;;9.15;95.75
76694;BME280;65625;52.136;5.424;2022-12-29T04:33:33;99926.31;;;9.16;95.38
76694;BME280;65625;52.136;5.424;2022-12-29T04:36:00;99910.16;;;9.16;95.16
76694;BME280;65625;52.136;5.424;2022-12-29T04:38:27;99922.28;;;9.11;94.76
76694;BME280;65625;52.136;5.424;2022-12-29T04:40:54;99923.63;;;9.05;94.94
76694;BME280;65625;52.136;5.424;2022-12-29T04:43:22;99918.84;;;9.09;94.27
76694;BME280;65625;52.136;5.424;2022-12-29T04:46:15;99929.09;;;9.15;93.52
76694;BME280;65625;52.136;5.424;2022-12-29T04:48:57;99939.63;;;9.18;92.34
76694;BME280;65625;52.136;5.424;2022-12-29T04:51:44;99932.16;;;9.21;92.56
76694;BME280;65625;52.136;5.424;2022-12-29T04:54:12;99941.59;;;9.16;92.82
76694;BME280;65625;52.136;5.424;2022-12-29T04:56:40;99934.44;;;9.26;92.06
76694;BME280;65625;52.136;5.424;2022-12-29T04:59:07;99938.63;;;9.19;92.35
76694;BME280;65625;52.136;5.424;2022-12-29T05:01:34;99937.44;;;9.12;92.64
76694;BME280;65625;52.136;5.424;2022-12-29T05:04:01;99948.72;;;9.06;92.79
76694;BME280;65625;52.136;5.424;2022-12-29T05:06:27;99947.25;;;9.13;92.86
76694;BME280;65625;52.136;5.424;2022-12-29T05:08:54;99952.75;;;9.11;92.01
76694;BME280;65625;52.136;5.424;2022-12-29T05:11:20;99966.56;;;9.18;91.98
76694;BME280;65625;52.136;5.424;2022-12-29T05:13:49;99955.91;;;9.16;92.10
76694;BME280;65625;52.136;5.424;2022-12-29T05:16:16;99963.41;;;9.13;92.31
76694;BME280;65625;52.136;5.424;2022-12-29T05:18:44;99961.06;;;9.08;91.85
76694;BME280;65625;52.136;5.424;2022-12-29T05:21:10;99959.38;;;9.07;91.80
76694;BME280;65625;52.136;5.424;2022-12-29T05:23:39;99952.03;;;9.09;91.32
76694;BME280;65625;52.136;5.424;2022-12-29T05:26:05;99969.41;;;9.05;91.34
76694;BME280;65625;52.136;5.424;2022-12-29T05:29:05;99962.19;;;9.06;91.44
76694;BME280;65625;52.136;5.424;2022-12-29T05:31:32;99970.25;;;9.06;91.14
76694;BME280;65625;52.136;5.424;2022-12-29T05:33:59;99967.56;;;9.06;91.35
76694;BME280;65625;52.136;5.424;2022-12-29T05:36:27;99968.31;;;9.08;91.68
76694;BME280;65625;52.136;5.424;2022-12-29T05:39:01;99968.44;;;9.06;90.66
76694;BME280;65625;52.136;5.424;2022-12-29T05:41:29;99970.00;;;9.09;90.76
76694;BME280;65625;52.136;5.424;2022-12-29T05:43:58;99965.47;;;9.09;90.25
76694;BME280;65625;52.136;5.424;2022-12-29T05:46:28;99955.81;;;9.07;90.83
76694;BME280;65625;52.136;5.424;2022-12-29T05:49:04;99959.69;;;9.14;90.32
76694;BME280;65625;52.136;5.424;2022-12-29T05:51:51;99962.19;;;9.06;90.93
76694;BME280;65625;52.136;5.424;2022-12-29T05:54:18;99967.69;;;9.04;90.51
76694;BME280;65625;52.136;5.424;2022-12-29T05:56:45;99969.25;;;9.07;90.12
76694;BME280;65625;52.136;5.424;2022-12-29T05:59:11;99973.81;;;9.06;90.18
76694;BME280;65625;52.136;5.424;2022-12-29T06:01:38;99982.72;;;9.07;90.96
76694;BME280;65625;52.136;5.424;2022-12-29T06:04:06;100006.47;;;9.02;91.08
76694;BME280;65625;52.136;5.424;2022-12-29T06:06:33;99993.88;;;9.02;89.54
76694;BME280;65625;52.136;5.424;2022-12-29T06:08:59;99999.13;;;9.04;90.32
76694;BME280;65625;52.136;5.424;2022-12-29T06:11:27;100000.25;;;9.01;90.52
76694;BME280;65625;52.136;5.424;2022-12-29T06:13:57;100017.75;;;8.95;90.97
76694;BME280;65625;52.136;5.424;2022-12-29T06:16:23;100012.88;;;8.89;91.26
76694;BME280;65625;52.136;5.424;2022-12-29T06:18:53;100007.97;;;8.83;92.17
76694;BME280;65625;52.136;5.424;2022-12-29T06:21:21;100003.13;;;8.77;92.19
76694;BME280;65625;52.136;5.424;2022-12-29T06:23:48;100005.31;;;8.72;91.91
76694;BME280;65625;52.136;5.424;2022-12-29T06:26:15;99995.78;;;8.68;92.19
76694;BME280;65625;52.136;5.424;2022-12-29T06:28:42;100015.72;;;8.66;92.60
76694;BME280;65625;52.136;5.424;2022-12-29T06:31:09;100003.25;;;8.65;92.84
76694;BME280;65625;52.136;5.424;2022-12-29T06:33:37;100020.00;;;8.57;93.30
76694;BME280;65625;52.136;5.424;2022-12-29T06:36:04;100015.59;;;8.56;93.16
76694;BME280;65625;52.136;5.424;2022-12-29T06:38:31;100030.41;;;8.51;94.15
76694;BME280;65625;52.136;5.424;2022-12-29T06:40:58;100024.53;;;8.46;94.18
76694;BME280;65625;52.136;5.424;2022-12-29T06:43:33;100026.34;;;8.45;94.09
76694;BME280;65625;52.136;5.424;2022-12-29T06:46:11;100045.44;;;8.42;94.36
76694;BME280;65625;52.136;5.424;2022-12-29T06:48:38;100028.44;;;8.42;94.35
76694;BME280;65625;52.136;5.424;2022-12-29T06:51:04;100025.75;;;8.42;94.63
76694;BME280;65625;52.136;5.424;2022-12-29T06:53:31;100027.44;;;8.43;94.14
76694;BME280;65625;52.136;5.424;2022-12-29T06:55:57;100024.75;;;8.43;94.31
76694;BME280;65625;52.136;5.424;2022-12-29T06:58:24;100018.03;;;8.48;93.94
76694;BME280;65625;52.136;5.424;2022-12-29T07:00:50;100015.59;;;8.45;93.01
76694;BME280;65625;52.136;5.424;2022-12-29T07:03:17;100025.63;;;8.54;92.18
76694;BME280;65625;52.136;5.424;2022-12-29T07:05:44;100014.47;;;8.48;92.03
76694;BME280;65625;52.136;5.424;2022-12-29T07:08:10;100025.16;;;8.49;92.11
76694;BME280;65625;52.136;5.424;2022-12-29T07:10:37;100049.34;;;8.49;92.02
76694;BME280;65625;52.136;5.424;2022-12-29T07:13:04;100049.69;;;8.45;92.17
76694;BME280;65625;52.136;5.424;2022-12-29T07:15:30;100028.94;;;8.36;92.29
76694;BME280;65625;52.136;5.424;2022-12-29T07:17:57;100029.78;;;8.25;92.65
76694;BME280;65625;52.136;5.424;2022-12-29T07:20:23;100035.22;;;8.13;93.54
76694;BME280;65625;52.136;5.424;2022-12-29T07:22:53;100045.69;;;8.05;93.94
76694;BME280;65625;52.136;5.424;2022-12-29T07:25:19;100050.81;;;7.97;94.71
76694;BME280;65625;52.136;5.424;2022-12-29T07:27:46;100056.66;;;7.91;94.50
76694;BME280;65625;52.136;5.424;2022-12-29T07:30:13;100051.03;;;7.83;94.47
76694;BME280;65625;52.136;5.424;2022-12-29T07:32:40;100048.28;;;7.71;95.04
76694;BME280;65625;52.136;5.424;2022-12-29T07:35:07;100061.44;;;7.63;95.67
76694;BME280;65625;52.136;5.424;2022-12-29T07:37:34;100056.31;;;7.60;95.51
76694;BME280;65625;52.136;5.424;2022-12-29T07:40:02;100064.50;;;7.59;95.82
76694;BME280;65625;52.136;5.424;2022-12-29T07:42:30;100068.53;;;7.64;96.31
76694;BME280;65625;52.136;5.424;2022-12-29T07:44:58;100066.47;;;7.68;96.09
76694;BME280;65625;52.136;5.424;2022-12-29T07:47:32;100066.03;;;7.74;95.63
76694;BME280;65625;52.136;5.424;2022-12-29T07:49:59;100065.03;;;7.75;96.00
76694;BME280;65625;52.136;5.424;2022-12-29T07:52:25;100073.84;;;7.77;95.99
76694;BME280;65625;52.136;5.424;2022-12-29T07:54:52;100068.00;;;7.83;95.93
76694;BME280;65625;52.136;5.424;2022-12-29T07:57:18;100067.28;;;7.92;96.00
76694;BME280;65625;52.136;5.424;2022-12-29T07:59:45;100074.53;;;8.03;95.04
76694;BME280;65625;52.136;5.424;2022-12-29T08:02:12;100064.16;;;8.09;94.69
76694;BME280;65625;52.136;5.424;2022-12-29T08:04:39;100061.13;;;8.14;94.26
76694;BME280;65625;52.136;5.424;2022-12-29T08:07:06;100058.19;;;8.17;93.97
76694;BME280;65625;52.136;5.424;2022-12-29T08:09:32;100065.78;;;8.23;93.62
76694;BME280;65625;52.136;5.424;2022-12-29T08:11:59;100051.50;;;8.22;93.41
76694;BME280;65625;52.136;5.424;2022-12-29T08:14:25;100045.03;;;8.25;93.31
76694;BME280;65625;52.136;5.424;2022-12-29T08:16:52;100055.56;;;8.28;92.42
76694;BME280;65625;52.136;5.424;2022-12-29T08:19:18;100048.25;;;8.41;92.05
76694;BME280;65625;52.136;5.424;2022-12-29T08:21:45;100037.13;;;8.45;92.36
76694;BME280;65625;52.136;5.424;2022-12-29T08:24:12;100045.31;;;8.44;91.36
76694;BME280;65625;52.136;5.424;2022-12-29T08:26:39;100037.97;;;8.46;91.69
76694;BME280;65625;52.136;5.424;2022-12-29T08:29:05;100043.84;;;8.51;90.76
76694;BME280;65625;52.136;5.424;2022-12-29T08:31:32;100046.16;;;8.55;89.53
76694;BME280;65625;52.136;5.424;2022-12-29T08:33:59;100044.81;;;8.61;89.69
76694;BME280;65625;52.136;5.424;2022-12-29T08:36:26;100059.25;;;8.71;88.77
76694;BME280;65625;52.136;5.424;2022-12-29T08:38:52;100051.31;;;8.69;88.18
76694;BME280;65625;52.136;5.424;2022-12-29T08:41:19;100047.25;;;8.75;86.89
76694;BME280;65625;52.136;5.424;2022-12-29T08:43:47;100052.38;;;8.78;87.75
76694;BME280;65625;52.136;5.424;2022-12-29T08:46:14;100053.75;;;8.72;88.43
76694;BME280;65625;52.136;5.424;2022-12-29T08:48:41;100069.63;;;8.75;87.13
76694;BME280;65625;52.136;5.424;2022-12-29T08:51:08;100065.75;;;8.79;87.90
76694;BME280;65625;52.136;5.424;2022-12-29T08:53:35;100057.88;;;8.76;88.27
76694;BME280;65625;52.136;5.424;2022-12-29T08:56:02;100066.56;;;8.80;87.67
76694;BME280;65625;52.136;5.424;2022-12-29T08:58:39;100069.75;;;8.74;88.80
76694;BME280;65625;52.136;5.424;2022-12-29T09:01:06;100072.84;;;8.69;89.06
76694;BME280;65625;52.136;5.424;2022-12-29T09:03:33;100074.66;;;8.69;88.83
76694;BME280;65625;52.136;5.424;2022-12-29T09:06:19;100078.19;;;8.80;89.68
76694;BME280;65625;52.136;5.424;2022-12-29T09:08:46;100072.19;;;8.88;88.12
76694;BME280;65625;52.136;5.424;2022-12-29T09:11:19;100080.38;;;8.86;88.35
76694;BME280;65625;52.136;5.424;2022-12-29T09:13:46;100079.44;;;8.87;88.83
76694;BME280;65625;52.136;5.424;2022-12-29T09:16:14;100076.97;;;8.95;88.55
76694;BME280;65625;52.136;5.424;2022-12-29T09:18:42;100075.00;;;8.98;87.99
76694;BME280;65625;52.136;5.424;2022-12-29T09:21:09;100084.91;;;8.97;88.18
76694;BME280;65625;52.136;5.424;2022-12-29T09:23:36;100095.69;;;8.97;88.78
76694;BME280;65625;52.136;5.424;2022-12-29T09:26:03;100083.34;;;8.94;89.12
76694;BME280;65625;52.136;5.424;2022-12-29T09:28:30;100096.66;;;8.85;89.50
76694;BME280;65625;52.136;5.424;2022-12-29T09:30:57;100099.84;;;8.79;89.91
76694;BME280;65625;52.136;5.424;2022-12-29T09:33:25;100110.38;;;8.71;91.35
76694;BME280;65625;52.136;5.424;2022-12-29T09:35:54;100112.91;;;8.61;91.98
76694;BME280;65625;52.136;5.424;2022-12-29T09:38:21;100121.47;;;8.55;92.20
76694;BME280;65625;52.136;5.424;2022-12-29T09:41:06;100127.34;;;8.49;93.08
76694;BME280;65625;52.136;5.424;2022-12-29T09:46:37;100143.69;;;8.35;94.81
76694;BME280;65625;52.136;5.424;2022-12-29T09:51:57;100148.06;;;8.25;95.68
76694;BME280;65625;52.136;5.424;2022-12-29T09:57:53;100162.47;;;8.24;96.23
76694;BME280;65625;52.136;5.424;2022-12-29T10:00:23;100165.78;;;8.28;96.75
76694;BME280;65625;52.136;5.424;2022-12-29T10:02:58;100149.41;;;8.31;96.12
76694;BME280;65625;52.136;5.424;2022-12-29T10:05:39;100164.94;;;8.27;96.95
76694;BME280;65625;52.136;5.424;2022-12-29T10:08:28;100176.56;;;8.28;96.93
76694;BME280;65625;52.136;5.424;2022-12-29T10:11:29;100173.63;;;8.31;97.48
76694;BME280;65625;52.136;5.424;2022-12-29T10:16:39;100185.84;;;8.35;97.16
76694;BME280;65625;52.136;5.424;2022-12-29T10:25:15;100197.56;;;8.34;97.57
76694;BME280;65625;52.136;5.424;2022-12-29T10:27:43;100218.72;;;8.38;97.76
76694;BME280;65625;52.136;5.424;2022-12-29T10:30:13;100215.69;;;8.43;97.54
76694;BME280;65625;52.136;5.424;2022-12-29T10:32:46;100218.28;;;8.44;97.95
76694;BME280;65625;52.136;5.424;2022-12-29T10:35:19;100226.56;;;8.41;97.95
76694;BME280;65625;52.136;5.424;2022-12-29T10:37:55;100232.91;;;8.40;98.16
76694;BME280;65625;52.136;5.424;2022-12-29T10:40:45;100231.09;;;8.41;98.15
76694;BME280;65625;52.136;5.424;2022-12-29T10:43:28;100236.00;;;8.47;98.16
76694;BME280;65625;52.136;5.424;2022-12-29T10:46:02;100244.06;;;8.47;98.23
76694;BME280;65625;52.136;5.424;2022-12-29T10:48:33;100236.22;;;8.44;98.19
76694;BME280;65625;52.136;5.424;2022-12-29T10:51:03;100249.69;;;8.44;98.50
76694;BME280;65625;52.136;5.424;2022-12-29T10:53:42;100253.63;;;8.51;98.61
76694;BME280;65625;52.136;5.424;2022-12-29T10:56:40;100258.66;;;8.55;98.32
76694;BME280;65625;52.136;5.424;2022-12-29T10:59:29;100262.41;;;8.53;98.33
76694;BME280;65625;52.136;5.424;2022-12-29T11:04:59;100282.59;;;8.47;98.16
76694;BME280;65625;52.136;5.424;2022-12-29T11:07:28;100291.47;;;8.48;98.46
76694;BME280;65625;52.136;5.424;2022-12-29T11:12:55;100290.28;;;8.52;98.54
76694;BME280;65625;52.136;5.424;2022-12-29T11:15:22;100297.28;;;8.54;98.13
76694;BME280;65625;52.136;5.424;2022-12-29T11:17:51;100294.59;;;8.54;97.73
76694;BME280;65625;52.136;5.424;2022-12-29T11:20:27;100311.25;;;8.59;98.08
76694;BME280;65625;52.136;5.424;2022-12-29T11:22:54;100311.28;;;8.70;98.15
76694;BME280;65625;52.136;5.424;2022-12-29T11:25:20;100307.78;;;8.81;98.17
76694;BME280;65625;52.136;5.424;2022-12-29T11:28:02;100318.84;;;9.00;98.53
76694;BME280;65625;52.136;5.424;2022-12-29T11:30:30;100311.81;;;9.32;97.84
76694;BME280;65625;52.136;5.424;2022-12-29T11:32:58;100313.91;;;9.73;96.18
76694;BME280;65625;52.136;5.424;2022-12-29T11:35:31;100319.41;;;9.93;96.10
76694;BME280;65625;52.136;5.424;2022-12-29T11:37:59;100324.44;;;9.54;95.52
76694;BME280;65625;52.136;5.424;2022-12-29T11:40:28;100318.66;;;9.25;96.46
76694;BME280;65625;52.136;5.424;2022-12-29T11:42:58;100334.63;;;9.05;96.05
76694;BME280;65625;52.136;5.424;2022-12-29T11:45:27;100325.28;;;8.86;96.75
76694;BME280;65625;52.136;5.424;2022-12-29T11:48:06;100332.56;;;8.73;96.99
76694;BME280;65625;52.136;5.424;2022-12-29T11:50:37;100341.25;;;8.77;96.91
76694;BME280;65625;52.136;5.424;2022-12-29T11:53:15;100339.75;;;8.96;96.86
76694;BME280;65625;52.136;5.424;2022-12-29T11:55:56;100339.78;;;9.08;96.80
76694;BME280;65625;52.136;5.424;2022-12-29T11:58:31;100348.44;;;9.00;96.39
76694;BME280;65625;52.136;5.424;2022-12-29T12:01:34;100352.69;;;8.91;96.29
76694;BME280;65625;52.136;5.424;2022-12-29T12:04:08;100349.06;;;9.04;96.35
76694;BME280;65625;52.136;5.424;2022-12-29T12:07:28;100344.03;;;8.99;95.52
76694;BME280;65625;52.136;5.424;2022-12-29T12:09:32;100358.91;;;8.81;95.95
76694;BME280;65625;52.136;5.424;2022-12-29T12:12:02;100361.41;;;8.71;95.56
76694;BME280;65625;52.136;5.424;2022-12-29T12:14:43;100372.28;;;8.70;96.33
76694;BME280;65625;52.136;5.424;2022-12-29T12:17:31;100362.34;;;8.59;96.98
76694;BME280;65625;52.136;5.424;2022-12-29T12:20:16;100352.63;;;8.46;97.58
76694;BME280;65625;52.136;5.424;2022-12-29T12:25:47;100368.13;;;8.42;97.98
76694;BME280;65625;52.136;5.424;2022-12-29T12:28:36;100368.75;;;8.46;98.41
76694;BME280;65625;52.136;5.424;2022-12-29T12:31:10;100364.72;;;8.51;98.73
76694;BME280;65625;52.136;5.424;2022-12-29T12:33:44;100375.69;;;8.61;98.73
76694;BME280;65625;52.136;5.424;2022-12-29T12:36:48;100387.81;;;8.66;98.84
76694;BME280;65625;52.136;5.424;2022-12-29T12:42:04;100375.97;;;8.69;98.42
76694;BME280;65625;52.136;5.424;2022-12-29T12:52:52;100387.63;;;9.04;98.06
76694;BME280;65625;52.136;5.424;2022-12-29T12:55:49;100386.06;;;9.13;97.58
76694;BME280;65625;52.136;5.424;2022-12-29T13:12:41;100411.97;;;9.03;96.95
76694;BME280;65625;52.136;5.424;2022-12-29T13:15:17;100396.16;;;8.98;97.08
76694;BME280;65625;52.136;5.424;2022-12-29T13:18:04;100406.19;;;8.96;96.74
76694;BME280;65625;52.136;5.424;2022-12-29T13:20:57;100406.81;;;9.00;96.68
76694;BME280;65625;52.136;5.424;2022-12-29T13:26:19;100411.84;;;9.04;95.80
76694;BME280;65625;52.136;5.424;2022-12-29T13:28:56;100400.44;;;9.01;96.24
76694;BME280;65625;52.136;5.424;2022-12-29T13:31:31;100414.38;;;8.94;96.44
76694;BME280;65625;52.136;5.424;2022-12-29T13:34:28;100415.81;;;8.87;96.13
76694;BME280;65625;52.136;5.424;2022-12-29T13:37:01;100418.94;;;8.81;96.69
76694;BME280;65625;52.136;5.424;2022-12-29T13:39:43;100411.00;;;8.80;96.67
76694;BME280;65625;52.136;5.424;2022-12-29T13:42:12;100419.19;;;8.78;96.77
76694;BME280;65625;52.136;5.424;2022-12-29T13:44:50;100427.13;;;8.80;97.12
76694;BME280;65625;52.136;5.424;2022-12-29T13:47:29;100415.53;;;8.79;97.28
76694;BME280;65625;52.136;5.424;2022-12-29T13:50:00;100414.66;;;8.79;96.71
76694;BME280;65625;52.136;5.424;2022-12-29T13:52:31;100422.09;;;8.75;97.25
76694;BME280;65625;52.136;5.424;2022-12-29T13:55:21;100413.28;;;8.73;96.90
76694;BME280;65625;52.136;5.424;2022-12-29T14:00:35;100410.34;;;8.76;96.65
76694;BME280;65625;52.136;5.424;2022-12-29T14:03:36;100410.59;;;8.73;96.71
76694;BME280;65625;52.136;5.424;2022-12-29T14:06:15;100416.22;;;8.70;97.21
76694;BME280;65625;52.136;5.424;2022-12-29T14:08:43;100424.41;;;8.69;97.24
76694;BME280;65625;52.136;5.424;2022-12-29T14:11:12;100426.34;;;8.67;96.90
76694;BME280;65625;52.136;5.424;2022-12-29T14:13:42;100437.31;;;8.64;96.74
76694;BME280;65625;52.136;5.424;2022-12-29T14:16:24;100447.81;;;8.56;97.21
76694;BME280;65625;52.136;5.424;2022-12-29T14:18:52;100441.16;;;8.49;97.33
76694;BME280;65625;52.136;5.424;2022-12-29T14:21:23;100438.88;;;8.43;97.32
76694;BME280;65625;52.136;5.424;2022-12-29T14:26:57;100471.31;;;8.29;97.67
76694;BME280;65625;52.136;5.424;2022-12-29T14:31:51;100436.13;;;8.19;97.21
76694;BME280;65625;52.136;5.424;2022-12-29T14:37:02;100451.19;;;8.09;97.70
76694;BME280;65625;52.136;5.424;2022-12-29T14:42:12;100470.66;;;8.00;97.67
76694;BME280;65625;52.136;5.424;2022-12-29T14:52:31;100462.38;;;7.78;98.51
76694;BME280;65625;52.136;5.424;2022-12-29T14:57:48;100463.47;;;7.76;98.77
76694;BME280;65625;52.136;5.424;2022-12-29T15:00:21;100467.09;;;7.74;99.33
76694;BME280;65625;52.136;5.424;2022-12-29T15:03:04;100473.34;;;7.75;99.25
76694;BME280;65625;52.136;5.424;2022-12-29T15:08:02;100474.44;;;7.72;99.25
76694;BME280;65625;52.136;5.424;2022-12-29T15:10:41;100470.66;;;7.75;99.22
76694;BME280;65625;52.136;5.424;2022-12-29T15:13:34;100472.47;;;7.74;99.86
76694;BME280;65625;52.136;5.424;2022-12-29T15:16:01;100470.53;;;7.77;99.80
76694;BME280;65625;52.136;5.424;2022-12-29T15:18:30;100474.84;;;7.79;99.65
76694;BME280;65625;52.136;5.424;2022-12-29T15:20:59;100476.56;;;7.80;99.71
76694;BME280;65625;52.136;5.424;2022-12-29T15:23:28;100479.25;;;7.80;99.85
76694;BME280;65625;52.136;5.424;2022-12-29T15:26:04;100464.22;;;7.78;99.92
76694;BME280;65625;52.136;5.424;2022-12-29T15:28:40;100464.22;;;7.78;100.00
76694;BME280;65625;52.136;5.424;2022-12-29T15:31:13;100471.09;;;7.82;99.84
76694;BME280;65625;52.136;5.424;2022-12-29T15:33:45;100473.56;;;7.85;99.90